createdAt,value
2022-10-29T00:01:56.745Z,15.20
2022-10-29T00:04:42.515Z,10.23
2022-10-29T00:07:28.544Z,12.45
2022-10-29T00:10:14.447Z,13.75
2022-10-29T00:13:04.388Z,7.88
2022-10-29T00:15:50.353Z,16.33
2022-10-29T00:18:42.595Z,16.65
2022-10-29T00:21:28.895Z,17.08
2022-10-29T00:24:14.625Z,13.50
2022-10-29T00:27:00.742Z,16.98
2022-10-29T00:29:47.333Z,14.27
2022-10-29T00:32:33.408Z,19.95
2022-10-29T00:35:19.423Z,22.20
2022-10-29T00:38:05.331Z,15.18
2022-10-29T00:40:51.323Z,16.83
2022-10-29T00:43:41.097Z,17.58
2022-10-29T00:46:31.157Z,15.18
2022-10-29T00:49:18.278Z,12.27
2022-10-29T00:52:06.534Z,20.10
2022-10-29T00:54:55.120Z,12.95
2022-10-29T00:57:48.707Z,17.25
2022-10-29T01:00:34.719Z,12.97
2022-10-29T01:03:20.666Z,15.30
2022-10-29T01:06:07.418Z,13.18
2022-10-29T01:08:53.855Z,16.88
2022-10-29T01:12:04.708Z,12.77
2022-10-29T01:15:09.033Z,21.30
2022-10-29T01:18:17.854Z,13.88
2022-10-29T01:21:33.895Z,13.20
2022-10-29T01:24:49.515Z,11.23
2022-10-29T01:27:49.934Z,11.65
2022-10-29T01:30:57.430Z,8.73
2022-10-29T01:33:49.397Z,15.75
2022-10-29T01:36:47.010Z,12.35
2022-10-29T01:39:41.620Z,13.02
2022-10-29T01:42:38.722Z,13.05
2022-10-29T01:45:36.852Z,18.13
2022-10-29T01:48:33.048Z,13.48
2022-10-29T01:51:24.775Z,10.68
2022-10-29T01:54:12.071Z,19.63
2022-10-29T01:56:59.686Z,15.40
2022-10-29T01:59:55.494Z,16.67
2022-10-29T02:02:54.589Z,13.48
2022-10-29T02:06:10.349Z,16.15
2022-10-29T02:09:08.094Z,11.98
2022-10-29T02:12:06.411Z,19.33
2022-10-29T02:15:21.215Z,8.95
2022-10-29T02:18:09.051Z,17.60
2022-10-29T02:20:55.899Z,12.13
2022-10-29T02:23:41.860Z,10.82
2022-10-29T02:26:27.733Z,15.63
2022-10-29T02:29:13.507Z,20.40
2022-10-29T02:31:59.527Z,12.45
2022-10-29T02:34:45.460Z,14.52
2022-10-29T02:37:31.723Z,12.38
2022-10-29T02:40:17.918Z,13.00
2022-10-29T02:43:06.511Z,8.90
2022-10-29T02:46:12.927Z,12.82
2022-10-29T02:48:58.805Z,13.27
2022-10-29T02:51:44.847Z,15.13
2022-10-29T02:54:30.816Z,15.75
2022-10-29T02:57:17.124Z,13.95
2022-10-29T03:00:03.573Z,12.90
2022-10-29T03:02:54.227Z,12.95
2022-10-29T03:05:42.969Z,15.07
2022-10-29T03:08:31.271Z,15.43
2022-10-29T03:11:17.346Z,11.43
2022-10-29T03:14:03.175Z,9.38
2022-10-29T03:16:48.947Z,11.60
2022-10-29T03:19:34.811Z,11.00
2022-10-29T03:22:20.719Z,12.75
2022-10-29T03:25:07.185Z,14.82
2022-10-29T03:27:53.081Z,11.32
2022-10-29T03:30:39.237Z,16.25
2022-10-29T03:33:26.621Z,11.95
2022-10-29T03:36:12.998Z,9.07
2022-10-29T03:38:58.968Z,15.73
2022-10-29T03:41:44.996Z,9.43
2022-10-29T03:44:31.322Z,8.82
2022-10-29T03:47:17.130Z,6.78
2022-10-29T03:50:03.405Z,13.68
2022-10-29T03:52:49.375Z,14.65
2022-10-29T03:55:35.507Z,17.27
2022-10-29T03:58:21.660Z,15.98
2022-10-29T04:01:09.726Z,6.93
2022-10-29T04:03:55.492Z,7.15
2022-10-29T04:06:41.481Z,12.55
2022-10-29T04:09:27.405Z,8.05
2022-10-29T04:12:13.507Z,10.50
2022-10-29T04:14:59.339Z,7.07
2022-10-29T04:17:45.112Z,11.02
2022-10-29T04:21:05.759Z,9.98
2022-10-29T04:29:49.992Z,10.68
2022-10-29T04:32:35.948Z,7.00
2022-10-29T04:35:22.026Z,15.45
2022-10-29T04:38:09.268Z,6.00
2022-10-29T04:41:01.548Z,8.27
2022-10-29T04:43:47.627Z,10.77
2022-10-29T04:46:33.731Z,12.45
2022-10-29T04:49:19.754Z,10.07
2022-10-29T04:52:06.145Z,10.52
2022-10-29T04:54:52.131Z,7.13
2022-10-29T04:57:38.051Z,8.48
2022-10-29T05:00:24.428Z,9.45
2022-10-29T05:03:11.155Z,10.45
2022-10-29T05:05:57.485Z,9.32
2022-10-29T05:08:43.810Z,12.75
2022-10-29T05:11:29.931Z,8.45
2022-10-29T05:14:15.799Z,8.48
2022-10-29T05:17:01.814Z,14.82
2022-10-29T05:19:48.118Z,8.57
2022-10-29T05:22:34.005Z,9.30
2022-10-29T05:25:20.006Z,6.55
2022-10-29T05:28:09.509Z,11.35
2022-10-29T05:30:55.627Z,11.23
2022-10-29T05:33:41.604Z,12.75
2022-10-29T05:36:27.495Z,6.03
2022-10-29T05:39:13.404Z,10.60
2022-10-29T05:41:59.337Z,9.18
2022-10-29T05:44:45.249Z,9.27
2022-10-29T05:47:31.138Z,15.45
2022-10-29T05:50:17.132Z,16.13
2022-10-29T05:53:05.854Z,10.18
2022-10-29T05:55:51.827Z,10.65
2022-10-29T05:58:37.667Z,13.27
2022-10-29T06:01:23.625Z,11.80
2022-10-29T06:04:09.701Z,7.93
2022-10-29T06:06:55.771Z,9.43
2022-10-29T06:09:42.283Z,13.77
2022-10-29T06:12:34.813Z,9.88
2022-10-29T06:15:21.588Z,9.98
2022-10-29T06:18:07.918Z,13.82
2022-10-29T06:20:57.103Z,16.00
2022-10-29T06:23:43.327Z,9.95
2022-10-29T06:26:29.304Z,9.02
2022-10-29T06:29:15.122Z,9.15
2022-10-29T06:32:01.064Z,14.65
2022-10-29T06:34:47.054Z,11.00
2022-10-29T06:37:37.226Z,12.60
2022-10-29T06:40:23.396Z,11.93
2022-10-29T06:43:16.019Z,5.90
2022-10-29T06:46:02.157Z,9.73
2022-10-29T06:48:48.017Z,13.43
2022-10-29T06:51:34.030Z,9.63
2022-10-29T06:54:19.859Z,10.40
2022-10-29T06:57:06.090Z,10.65
2022-10-29T06:59:52.441Z,14.00
2022-10-29T07:02:38.317Z,9.60
2022-10-29T07:05:24.654Z,11.18
2022-10-29T07:08:11.769Z,16.30
2022-10-29T07:10:58.051Z,12.77
2022-10-29T07:13:44.363Z,9.88
2022-10-29T07:16:30.519Z,14.32
2022-10-29T07:19:16.446Z,14.98
2022-10-29T07:22:02.410Z,10.93
2022-10-29T07:24:48.347Z,10.05
2022-10-29T07:27:34.248Z,18.60
2022-10-29T07:30:20.691Z,15.93
2022-10-29T07:33:06.670Z,15.77
2022-10-29T07:35:57.061Z,10.40
2022-10-29T07:38:43.356Z,11.13
2022-10-29T07:41:29.401Z,14.88
2022-10-29T07:44:15.230Z,18.65
2022-10-29T07:47:03.062Z,19.00
2022-10-29T07:49:49.160Z,13.73
2022-10-29T07:52:35.174Z,13.20
2022-10-29T07:55:21.353Z,13.13
2022-10-29T07:58:10.599Z,15.63
2022-10-29T08:00:59.880Z,9.85
2022-10-29T08:03:45.747Z,11.80
2022-10-29T08:06:31.754Z,14.45
2022-10-29T08:09:17.559Z,15.18
2022-10-29T08:12:05.203Z,14.63
2022-10-29T08:14:51.177Z,25.02
2022-10-29T08:17:38.214Z,16.58
2022-10-29T08:20:26.984Z,12.65
2022-10-29T08:23:14.446Z,12.82
2022-10-29T08:26:00.447Z,15.80
2022-10-29T08:28:46.533Z,10.15
2022-10-29T08:31:32.530Z,19.50
2022-10-29T08:34:18.435Z,14.95
2022-10-29T08:37:04.334Z,13.27
2022-10-29T08:39:50.310Z,15.43
2022-10-29T08:42:47.588Z,16.60
2022-10-29T08:45:46.828Z,18.65
2022-10-29T08:48:53.166Z,15.88
2022-10-29T08:51:43.705Z,13.82
2022-10-29T08:54:33.217Z,13.05
2022-10-29T08:57:24.649Z,13.75
2022-10-29T09:00:19.856Z,16.95
2022-10-29T09:03:11.535Z,17.88
2022-10-29T09:06:09.638Z,11.75
2022-10-29T09:09:07.637Z,23.00
2022-10-29T09:12:30.775Z,13.00
2022-10-29T09:15:29.155Z,16.17
2022-10-29T09:18:40.466Z,15.90
2022-10-29T09:21:34.926Z,13.85
2022-10-29T09:24:37.088Z,15.73
2022-10-29T09:27:31.590Z,14.25
2022-10-29T09:30:21.263Z,17.70
2022-10-29T09:33:15.070Z,13.68
2022-10-29T09:36:01.913Z,14.48
2022-10-29T09:39:02.549Z,12.57
2022-10-29T09:41:53.192Z,13.45
2022-10-29T09:45:02.585Z,17.88
2022-10-29T09:48:17.202Z,14.63
2022-10-29T09:51:27.741Z,13.90
2022-10-29T09:54:13.865Z,13.27
2022-10-29T09:57:02.490Z,11.05
2022-10-29T09:59:55.495Z,16.38
2022-10-29T10:03:00.203Z,12.73
2022-10-29T10:06:03.486Z,16.65
2022-10-29T10:09:04.886Z,12.10
2022-10-29T10:11:53.083Z,15.70
2022-10-29T10:14:39.736Z,14.25
2022-10-29T10:17:25.587Z,10.20
2022-10-29T10:20:28.214Z,16.98
2022-10-29T10:23:26.623Z,11.77
2022-10-29T10:26:43.379Z,16.10
2022-10-29T10:29:29.607Z,18.10
2022-10-29T10:32:16.877Z,15.77
2022-10-29T10:35:23.670Z,14.27
2022-10-29T10:38:11.782Z,18.30
2022-10-29T10:41:03.189Z,10.88
2022-10-29T10:43:50.122Z,14.15
2022-10-29T10:46:40.006Z,11.50
2022-10-29T10:49:33.997Z,15.95
2022-10-29T10:55:26.253Z,13.38
2022-10-29T10:58:57.554Z,15.85
2022-10-29T11:01:49.920Z,12.52
2022-10-29T11:04:39.121Z,13.52
2022-10-29T11:07:29.977Z,13.82
2022-10-29T11:10:18.274Z,16.55
2022-10-29T11:13:09.968Z,11.70
2022-10-29T11:16:07.391Z,11.15
2022-10-29T11:19:12.125Z,14.10
2022-10-29T11:22:16.731Z,13.45
2022-10-29T11:25:14.783Z,15.18
2022-10-29T11:28:21.175Z,13.00
2022-10-29T11:31:37.033Z,17.45
2022-10-29T11:34:45.963Z,12.25
2022-10-29T11:37:53.786Z,19.60
2022-10-29T11:40:43.219Z,18.65
2022-10-29T11:43:29.302Z,12.63
2022-10-29T11:46:44.826Z,19.08
2022-10-29T11:50:01.015Z,16.73
2022-10-29T11:52:53.194Z,11.77
2022-10-29T11:55:57.724Z,11.18
2022-10-29T11:59:02.568Z,14.02
2022-10-29T12:01:48.749Z,15.88
2022-10-29T12:05:01.501Z,15.45
2022-10-29T12:07:53.646Z,18.92
2022-10-29T12:11:01.236Z,15.65
2022-10-29T12:13:59.314Z,8.63
2022-10-29T12:17:04.146Z,11.00
2022-10-29T12:20:12.999Z,10.73
2022-10-29T12:23:35.021Z,11.60
2022-10-29T12:26:37.099Z,10.52
2022-10-29T12:29:44.109Z,11.65
2022-10-29T12:32:30.452Z,15.57
2022-10-29T12:38:55.954Z,18.90
2022-10-29T12:41:47.258Z,14.50
2022-10-29T12:44:53.943Z,12.77
2022-10-29T12:47:52.999Z,18.77
2022-10-29T12:50:58.426Z,20.77
2022-10-29T12:53:52.621Z,17.50
2022-10-29T12:56:39.285Z,14.02
2022-10-29T12:59:25.460Z,13.77
2022-10-29T13:02:36.170Z,11.23
2022-10-29T13:05:34.099Z,13.93
2022-10-29T13:08:34.148Z,14.38
2022-10-29T13:11:24.666Z,12.88
2022-10-29T13:14:14.086Z,11.23
2022-10-29T13:17:03.105Z,11.82
2022-10-29T13:20:04.275Z,11.80
2022-10-29T13:23:03.854Z,17.38
2022-10-29T13:25:56.032Z,13.63
2022-10-29T13:28:47.338Z,13.23
2022-10-29T13:31:33.455Z,13.30
2022-10-29T13:34:55.475Z,18.75
2022-10-29T13:37:49.150Z,13.32
2022-10-29T13:43:22.100Z,13.52
2022-10-29T13:46:14.383Z,9.65
2022-10-29T13:49:03.295Z,17.23
2022-10-29T13:52:05.423Z,11.45
2022-10-29T13:55:04.360Z,16.75
2022-10-29T13:58:04.543Z,13.75
2022-10-29T14:00:50.913Z,15.90
2022-10-29T14:03:55.949Z,13.05
2022-10-29T14:06:42.355Z,22.00
2022-10-29T14:09:50.343Z,18.48
2022-10-29T14:12:38.286Z,15.93
2022-10-29T14:15:24.093Z,18.75
2022-10-29T14:18:26.050Z,19.48
2022-10-29T14:21:22.037Z,16.20
2022-10-29T14:24:10.652Z,17.10
2022-10-29T14:27:07.918Z,19.50
2022-10-29T14:30:10.877Z,22.35
2022-10-29T14:32:57.136Z,21.13
2022-10-29T14:35:44.156Z,19.58
2022-10-29T14:38:38.098Z,18.70
2022-10-29T14:41:25.777Z,15.45
2022-10-29T14:44:18.933Z,20.65
2022-10-29T14:47:17.775Z,24.40
2022-10-29T14:50:14.890Z,18.33
2022-10-29T14:53:05.694Z,21.73
2022-10-29T14:55:51.952Z,21.70
2022-10-29T14:58:38.670Z,20.30
2022-10-29T15:01:25.028Z,17.33
2022-10-29T15:04:19.563Z,25.25
2022-10-29T15:07:23.795Z,15.43
2022-10-29T15:10:24.296Z,16.08
2022-10-29T15:13:27.382Z,17.17
2022-10-29T15:16:21.474Z,14.70
2022-10-29T15:19:14.623Z,15.40
2022-10-29T15:22:00.837Z,16.88
2022-10-29T15:24:50.636Z,15.57
2022-10-29T15:27:37.906Z,15.90
2022-10-29T15:30:33.118Z,15.77
2022-10-29T15:33:25.406Z,17.33
2022-10-29T15:36:11.270Z,16.80
2022-10-29T15:39:26.725Z,19.23
2022-10-29T15:42:21.760Z,14.57
2022-10-29T15:45:08.401Z,15.23
2022-10-29T15:48:18.545Z,17.50
2022-10-29T15:51:04.960Z,18.58
2022-10-29T15:53:51.105Z,17.88
2022-10-29T15:56:37.231Z,18.13
2022-10-29T15:59:25.829Z,18.58
2022-10-29T16:02:19.531Z,14.00
2022-10-29T16:05:05.910Z,20.85
2022-10-29T16:07:51.988Z,22.52
2022-10-29T16:10:38.649Z,19.77
2022-10-29T16:13:27.010Z,23.17
2022-10-29T16:16:15.948Z,24.02
2022-10-29T16:19:02.041Z,22.85
2022-10-29T16:21:48.008Z,19.08
2022-10-29T16:24:35.012Z,19.63
2022-10-29T16:27:21.283Z,19.88
2022-10-29T16:30:08.292Z,16.88
2022-10-29T16:32:55.279Z,15.43
2022-10-29T16:35:41.828Z,20.20
2022-10-29T16:38:27.747Z,15.50
2022-10-29T16:41:15.535Z,24.45
2022-10-29T16:44:01.751Z,23.55
2022-10-29T16:46:50.174Z,17.95
2022-10-29T16:49:36.093Z,19.40
2022-10-29T16:52:24.181Z,23.10
2022-10-29T16:55:12.785Z,19.92
2022-10-29T16:57:59.454Z,15.15
2022-10-29T17:00:46.084Z,23.90
2022-10-29T17:03:33.155Z,22.42
2022-10-29T17:06:19.528Z,22.13
2022-10-29T17:09:06.823Z,15.25
2022-10-29T17:11:53.022Z,17.35
2022-10-29T17:14:39.298Z,24.30
2022-10-29T17:17:26.436Z,24.17
2022-10-29T17:20:12.371Z,22.20
2022-10-29T17:22:58.423Z,21.80
2022-10-29T17:25:44.792Z,26.30
2022-10-29T17:28:30.777Z,23.20
2022-10-29T17:31:16.649Z,22.20
2022-10-29T17:34:02.804Z,24.35
2022-10-29T17:36:49.664Z,22.60
2022-10-29T17:39:36.068Z,17.42
2022-10-29T17:42:22.380Z,21.80
2022-10-29T17:45:09.274Z,21.95
2022-10-29T17:47:57.228Z,21.67
2022-10-29T17:50:54.402Z,16.63
2022-10-29T17:53:40.928Z,19.55
2022-10-29T17:56:27.152Z,24.80
2022-10-29T17:59:13.257Z,22.20
2022-10-29T18:01:59.283Z,22.33
2022-10-29T18:04:46.118Z,21.08
2022-10-29T18:07:32.379Z,23.10
2022-10-29T18:10:18.292Z,19.00
2022-10-29T18:13:04.476Z,16.48
2022-10-29T18:15:50.764Z,21.05
2022-10-29T18:18:48.352Z,26.85
2022-10-29T18:21:44.614Z,17.88
2022-10-29T18:24:30.964Z,22.15
2022-10-29T18:27:16.801Z,27.75
2022-10-29T18:30:03.422Z,23.33
2022-10-29T18:32:49.864Z,16.67
2022-10-29T18:35:35.864Z,21.10
2022-10-29T18:38:23.795Z,20.38
2022-10-29T18:41:14.997Z,26.73
2022-10-29T18:44:01.329Z,23.73
2022-10-29T18:46:47.454Z,23.52
2022-10-29T18:49:33.438Z,24.95
2022-10-29T18:52:19.431Z,21.73
2022-10-29T18:55:08.112Z,21.33
2022-10-29T18:57:57.697Z,22.73
2022-10-29T19:00:44.247Z,22.88
2022-10-29T19:03:30.345Z,20.95
2022-10-29T19:06:16.446Z,20.98
2022-10-29T19:09:06.079Z,25.35
2022-10-29T19:11:58.536Z,21.38
2022-10-29T19:14:45.810Z,21.30
2022-10-29T19:17:31.606Z,23.13
2022-10-29T19:20:17.430Z,25.75
2022-10-29T19:23:03.669Z,25.73
2022-10-29T19:25:49.553Z,35.72
2022-10-29T19:28:36.209Z,23.02
2022-10-29T19:31:26.528Z,26.35
2022-10-29T19:34:12.698Z,25.50
2022-10-29T19:36:58.643Z,24.40
2022-10-29T19:39:44.643Z,26.70
2022-10-29T19:42:30.560Z,23.50
2022-10-29T19:45:16.483Z,25.75
2022-10-29T19:48:02.421Z,24.52
2022-10-29T19:50:56.146Z,23.50
2022-10-29T19:53:42.393Z,21.13
2022-10-29T19:56:28.615Z,26.55
2022-10-29T19:59:14.438Z,24.88
2022-10-29T20:02:00.386Z,20.73
2022-10-29T20:04:46.785Z,22.50
2022-10-29T20:07:34.462Z,31.10
2022-10-29T20:10:20.475Z,25.60
2022-10-29T20:13:10.917Z,20.73
2022-10-29T20:15:57.355Z,18.85
2022-10-29T20:18:43.700Z,23.58
2022-10-29T20:21:29.621Z,27.27
2022-10-29T20:24:15.653Z,26.48
2022-10-29T20:27:01.584Z,21.20
2022-10-29T20:29:47.442Z,18.13
2022-10-29T20:32:33.487Z,21.77
2022-10-29T20:35:20.011Z,24.73
2022-10-29T20:38:06.203Z,23.88
2022-10-29T20:40:52.499Z,20.77
2022-10-29T20:43:40.663Z,17.52
2022-10-29T20:46:27.601Z,24.92
2022-10-29T20:49:13.678Z,23.05
2022-10-29T20:51:59.505Z,28.52
2022-10-29T20:54:45.310Z,21.20
2022-10-29T20:57:31.473Z,22.42
2022-10-29T21:00:17.687Z,22.38
2022-10-29T21:03:03.632Z,25.75
2022-10-29T21:05:49.500Z,22.20
2022-10-29T21:08:35.630Z,24.70
2022-10-29T21:11:23.066Z,23.80
2022-10-29T21:14:09.149Z,27.30
2022-10-29T21:16:55.146Z,20.45
2022-10-29T21:19:41.022Z,20.17
2022-10-29T21:22:27.163Z,18.38
2022-10-29T21:25:13.346Z,22.08
2022-10-29T21:27:59.458Z,18.60
2022-10-29T21:30:46.083Z,22.00
2022-10-29T21:33:31.990Z,19.60
2022-10-29T21:36:17.876Z,18.67
2022-10-29T21:39:03.878Z,22.70
2022-10-29T21:41:49.809Z,22.08
2022-10-29T21:44:35.757Z,19.73
2022-10-29T21:47:21.718Z,23.30
2022-10-29T21:50:08.085Z,21.77
2022-10-29T21:52:56.872Z,23.23
2022-10-29T21:55:43.238Z,27.25
2022-10-29T21:58:29.588Z,22.85
2022-10-29T22:01:16.975Z,20.35
2022-10-29T22:04:03.131Z,16.77
2022-10-29T22:06:48.955Z,19.73
2022-10-29T22:09:34.845Z,20.10
2022-10-29T22:12:21.126Z,18.17
2022-10-29T22:15:07.871Z,20.00
2022-10-29T22:17:53.670Z,19.15
2022-10-29T22:20:39.528Z,18.10
2022-10-29T22:23:25.371Z,19.00
2022-10-29T22:26:11.766Z,18.75
2022-10-29T22:28:57.754Z,18.92
2022-10-29T22:31:43.509Z,21.17
2022-10-29T22:34:29.462Z,18.95
2022-10-29T22:37:15.255Z,20.45
2022-10-29T22:40:01.160Z,18.63
2022-10-29T22:42:47.081Z,14.95
2022-10-29T22:45:32.961Z,19.55
2022-10-29T22:48:19.033Z,16.08
2022-10-29T22:51:16.646Z,19.08
2022-10-29T22:54:03.077Z,18.05
2022-10-29T22:56:48.985Z,20.42
2022-10-29T22:59:34.814Z,21.65
2022-10-29T23:02:20.931Z,17.67
2022-10-29T23:05:07.168Z,24.60
2022-10-29T23:07:53.070Z,18.50
2022-10-29T23:10:39.085Z,16.27
2022-10-29T23:13:25.054Z,22.77
2022-10-29T23:16:11.209Z,13.07
2022-10-29T23:18:59.885Z,20.02
2022-10-29T23:21:46.044Z,16.30
2022-10-29T23:24:31.943Z,15.75
2022-10-29T23:27:17.936Z,17.30
2022-10-29T23:30:04.654Z,16.52
2022-10-29T23:32:50.708Z,20.80
2022-10-29T23:35:36.556Z,14.88
2022-10-29T23:38:22.408Z,21.13
2022-10-29T23:41:08.673Z,19.05
2022-10-29T23:43:54.888Z,12.98
2022-10-29T23:46:40.797Z,16.08
2022-10-29T23:49:26.818Z,13.27
2022-10-29T23:52:12.642Z,14.52
2022-10-29T23:54:58.593Z,15.05
2022-10-29T23:57:44.531Z,15.10
